Tiempo atmosférico en la estación meteorológica de Alcázar Del Rey, Cuenca (875 m.)



Fecha
DESCASC
Temp. máxima en grados centígrados (hora)
DESCASC
Temp. mínima en grados centígrados (hora)
DESCASC
Temp. media en grados centígrados
DESCASC
Racha de viento máxima en m/sg (hora)
DESCASC
Velocidad máxima media en intervalos de 10 minutos(hora)
DESCASC
Precipitaciones diarias en mm
DESCASC
Precipitaciones de 00:00 a 06:00 en mm
DESCASC
Precipitaciones de 06:00 a 12:00 en mm
DESCASC
Precipitaciones de 12:00 a 18:00 en mm
DESCASC
Precipitaciones de 18:00 a 24:00 en mm
DESCASC
05-04-2020 19 (17:40) 7.4 (07:30) 13.2 10.83 (09:40) 5.83 (23:10) 0 0 0 0 0
04-04-2020 16 (16:20) 2.6 (02:20) 9.3 13.33 (18:40) 7.5 (15:00) 0 0 0 0 0
03-04-2020 16.1 (18:20) 1.6 (08:10) 8.9 6.39 (17:20) 3.06 (10:50) 0 0 0 0 0
02-04-2020 13.4 (15:20) -0.8 (-00:0) 6.3 11.11 (20:10) 6.67 (20:20) 0 0 0 0 0
01-04-2020 12.9 (18:10) 4.8 (00:00) 8.8 9.72 (15:40) 5.28 (16:10) 4.4 4.2 0.2 0 0
31-03-2020 11.4 (18:20) 0.2 (00:00) 5.8 13.89 (12:00) 8.06 (14:10) 11.6 3.8 4.8 1.6 1.4
30-03-2020 8.4 (00:50) 0.3 (00:00) 4.3 11.67 (17:30) 6.67 (17:20) 3.6 0 0 0 3.6
29-03-2020 17.4 (17:20) -0.6 (-00:0) 8.4 7.5 (18:40) 3.61 (13:00) 0 0 0 0 0
28-03-2020 14.6 (17:30) -1.6 (-00:0) 6.5 6.11 (07:00) 3.89 (07:00) 0 0 0 0 0
27-03-2020 7.3 (17:20) -0.4 (00:00) 3.5 10.83 (14:30) 7.5 (15:30) 2 0 1.6 0.4 0
26-03-2020 13.7 (15:30) 1.3 (00:00) 7.5 10.28 (15:10) 5.83 (14:00) 0 0 0 0 0
25-03-2020 14.2 (16:50) 3.1 (00:00) 8.6 7.78 (14:00) 3.61 (18:20) 0 0 0 0 0
24-03-2020 12.3 (15:10) 5.4 (00:00) 8.9 10 (13:50) 5.83 (12:20) 0.2 0.2 0 0 0
23-03-2020 12.4 (13:50) 5.9 (00:00) 9.1 11.67 (15:00) 6.94 (15:00) 3.8 2.2 0.6 1 0
22-03-2020 11.5 (14:00) 1.3 (07:00) 6.4 7.5 (15:00) 4.44 (15:10) 8.4 0 0.2 1.4 6.8
21-03-2020 8.5 (12:20) 4.5 (00:00) 6.5 12.22 (00:40) 6.39 (00:30) 2.2 0 0 0.4 1.8
20-03-2020 10.5 (14:20) 4.2 (00:00) 7.3 11.67 (03:10) 6.11 (02:20) 0 0 0 0 0
19-03-2020 13.8 (14:00) 3.6 (00:00) 8.7 13.33 (23:00) 7.5 (22:40) 0 0 0 0 0
18-03-2020 15.9 (16:00) 5.7 (00:00) 10.8 5.83 (17:10) 3.33 (15:30) 0 0 0 0 0
17-03-2020 13.2 (13:30) 2.8 (00:00) 8 13.33 (15:20) 9.44 (15:20) 0.4 0 0.4 0 0
16-03-2020 9.3 (00:00) 2.8 (00:00) 6.1 9.72 (05:40) 5.83 (05:50) 17 14 2.8 0.2 0
15-03-2020 18 (13:50) 8.5 (00:00) 13.3 20.83 (14:50) 5.83 (10:20) -- 0 0 -- 1.8
14-03-2020 21.9 (16:00) 5 (00:00) 13.4 6.11 (16:10) 3.06 (01:20) 0 0 0 0 0
13-03-2020 21.7 (15:40) 9.9 (04:20) 15.8 8.33 (13:30) 5 (12:40) 0 0 0 0 0
12-03-2020 25.9 (14:30) 6.1 (00:00) 16 7.5 (14:00) 3.89 (14:40) 0 0 0 0 0
11-03-2020 25.3 (16:30) 3.8 (00:00) 14.5 6.11 (15:00) 3.61 (15:20) 0 0 0 0 0
10-03-2020 20.8 (16:20) 0.6 (00:00) 10.7 6.11 (17:00) 3.33 (17:00) 0 0 0 0 0
09-03-2020 15.3 (16:50) 2.4 (00:00) 8.9 11.39 (15:30) 6.39 (14:00) 0 0 0 0 0
08-03-2020 15.7 (15:30) -2.9 (-00:0) 6.4 8.61 (16:50) 5.56 (11:50) 0 0 0 0 0

Gráficas

Temp. máximas Temp. mínimas Temp. medias Precipitaciones Rachas de viento máximas Velocidades máximas media en intervalos de 10 minutos

Datos horarios

Fecha y hora oficial Temperatura (ºC) Velocidad del viento (km/h) Dirección del viento Racha (km/h) Dirección de racha Precipitación (mm) Presión (hPa) Tendencia (hPa) Humedad (%)
2020-04-06 23:00:00 12.1 9 Sudeste 18 Sudeste 0 -- -- 91
2020-04-06 22:00:00 12.3 6 Sudeste 17 Sudeste 0 -- -- 91
2020-04-06 21:00:00 13.2 6 Sudeste 16 Sudeste 0 -- -- 88
2020-04-06 20:00:00 14.1 9 Sur 26 Sur 0 -- -- 84
2020-04-06 19:00:00 14.9 12 Sur 23 Sur 0 -- -- 79
2020-04-06 18:00:00 14.5 15 Sur 26 Sur 0 -- -- 79
2020-04-06 17:00:00 15.9 10 Sur 24 Sur 0 -- -- 70
2020-04-06 16:00:00 15.6 8 Sudoeste 26 Sur 0 -- -- 74
2020-04-06 15:00:00 16.1 10 Sur 22 Sur 0 -- -- 75
2020-04-06 14:00:00 12.8 9 Sur 20 Sur 0 -- -- 90
2020-04-06 13:00:00 11.3 11 Sur 22 Sur 0 -- -- 94
2020-04-06 12:00:00 10.3 13 Sudeste 23 Sudeste 0.2 -- -- 96
2020-04-06 11:00:00 9.5 12 Sudeste 23 Sudeste 0.2 -- -- 95
2020-04-06 10:00:00 8.8 10 Sudeste 19 Sudeste 0.4 -- -- 95
2020-04-06 09:00:00 8.6 4 Sudeste 15 Sudeste 0.4 -- -- 94
2020-04-06 08:00:00 8.4 10 Sudeste 18 Sudeste 0 -- -- 92
2020-04-06 07:00:00 8.4 9 Sudeste 19 Sudeste 0 -- -- 92
2020-04-06 06:00:00 8.4 10 Sur 19 Sudeste 0 -- -- 91
2020-04-06 05:00:00 8.8 9 Sudeste 25 Sudeste 0 -- -- 91
2020-04-06 04:00:00 8.8 10 Sudeste 22 Este 0 -- -- 91
2020-04-06 03:00:00 9.4 7 Sudeste 18 Sudeste 0 -- -- 88
2020-04-06 02:00:00 9.8 10 Sudeste 18 Sur 0 -- -- 86
2020-04-06 01:00:00 10.7 9 Sudeste 27 Sudeste 0 -- -- 82
2020-04-06 00:00:00 11.5 15 Sudeste 34 Sudeste 0 -- -- 79
2020-04-05 23:00:00 12.9 18 Sudeste 32 Sudeste 0 -- -- 72
2020-04-05 22:00:00 13.6 10 Sudeste 25 Sur 0 -- -- 66
2020-04-05 21:00:00 14.9 11 Sudeste 21 Sur 0 -- -- 61
2020-04-05 20:00:00 16.9 12 Sudeste 19 Sur 0 -- -- 54
2020-04-05 19:00:00 17.8 12 Sur 22 Sudeste 0 -- -- 49
2020-04-05 18:00:00 18.6 12 Sur 24 Sur 0 -- -- 44
2020-04-05 17:00:00 18.4 10 Sur 28 Sudeste 0 -- -- 44
2020-04-05 16:00:00 18.4 14 Sudeste 29 Sudeste 0 -- -- 46
2020-04-05 15:00:00 17.2 14 Sur 32 Sur 0 -- -- 52
2020-04-05 14:00:00 16.8 14 Sur 26 Sudeste 0 -- -- 51
2020-04-05 13:00:00 15.7 13 Sudeste 29 Sudeste 0 -- -- 56
2020-04-05 12:00:00 13.8 17 Sudeste 31 Sudeste 0 -- -- 59
2020-04-05 11:00:00 12.1 16 Sudeste 33 Sudeste 0 -- -- 64
2020-04-05 10:00:00 9.9 17 Sudeste 39 Sudeste 0 -- -- 68
2020-04-05 09:00:00 8 18 Sudeste 32 Sudeste 0 -- -- 75
2020-04-05 08:00:00 7.4 14 Sudeste 27 Sudeste 0 -- -- 79
2020-04-05 07:00:00 7.5 17 Sudeste 35 Sudeste 0 -- -- 79
2020-04-05 06:00:00 7.7 17 Sudeste 34 Sudeste 0 -- -- 79
2020-04-05 05:00:00 7.9 17 Sudeste 38 Sudeste 0 -- -- 79
2020-04-05 04:00:00 8.2 16 Sudeste 35 Sudeste 0 -- -- 81
2020-04-05 03:00:00 8.3 17 Sudeste 33 Sudeste 0 -- -- 81
2020-04-05 02:00:00 8.5 18 Sudeste 37 Sudeste 0 -- -- 81
2020-04-05 01:00:00 8.9 18 Sudeste 38 Sudeste 0 -- -- 79
2020-04-05 00:00:00 9.4 22 Sudeste 40 Sudeste 0 -- -- 71
2020-04-04 23:00:00 10 20 Sudeste 35 Sudeste 0 -- -- 67
2020-04-04 22:00:00 10.7 20 Sudeste 39 Sudeste 0 -- -- 64
2020-04-04 21:00:00 11.4 19 Sudeste 37 Sudeste 0 -- -- 62
2020-04-04 20:00:00 12.5 21 Sudeste 40 Sudeste 0 -- -- 58
2020-04-04 19:00:00 13.6 23 Sudeste 48 Sudeste 0 -- -- 54
2020-04-04 18:00:00 14.5 23 Sudeste 45 Sudeste 0 -- -- 51
2020-04-04 17:00:00 15.7 27 Sudeste 44 Sudeste 0 -- -- 47
2020-04-04 16:00:00 15.8 25 Sudeste 44 Sudeste 0 -- -- 48
2020-04-04 15:00:00 15.6 27 Sudeste 46 Sudeste 0 -- -- 47
2020-04-04 14:00:00 15.2 22 Sudeste 46 Este 0 -- -- 49
2020-04-04 13:00:00 14.1 25 Sudeste 42 Sudeste 0 -- -- 55
2020-04-04 12:00:00 12.7 22 Sudeste 37 Sudeste 0 -- -- 62
2020-04-04 11:00:00 10.9 15 Sudeste 30 Sudeste 0 -- -- 72
2020-04-04 10:00:00 8.9 13 Sudeste 26 Sudeste 0 -- -- 79
2020-04-04 09:00:00 6.5 6 Sudeste 14 Nordeste 0 -- -- 87
2020-04-04 08:00:00 3.6 5 Sudeste 15 Sudeste 0 -- -- 93
2020-04-04 07:00:00 3.8 3 Nordeste 9 Noroeste 0 -- -- 92
2020-04-04 06:00:00 3.8 0 Calma 12 Este 0 -- -- 92
2020-04-04 05:00:00 4 2 Este 10 Este 0 -- -- 92
2020-04-04 04:00:00 4.2 6 Sudeste 13 Este 0 -- -- 91
2020-04-04 03:00:00 4.1 3 Sur 12 Sudeste 0 -- -- 87
2020-04-04 02:00:00 3.2 2 Noroeste 4 Oeste 0 -- -- 83
2020-04-04 01:00:00 4 0 Calma 4 Sudoeste 0 -- -- 82
2020-04-04 00:00:00 5.4 0 Calma 4 Sur 0 -- -- 75
2020-04-03 23:00:00 6.7 0 Calma 3 Sudeste 0 -- -- 68
2020-04-03 22:00:00 8.7 0 Calma 5 Sur 0 -- -- 55
2020-04-03 21:00:00 11.7 0 Calma 12 Oeste 0 -- -- 43
2020-04-03 20:00:00 14.7 3 Oeste 10 Oeste 0 -- -- 39
2020-04-03 19:00:00 15.9 4 Oeste 14 Noroeste 0 -- -- 31
2020-04-03 18:00:00 15.9 6 Sudoeste 23 Oeste 0 -- -- 34
2020-04-03 17:00:00 15.6 8 Sudoeste 21 Sudoeste 0 -- -- 35
2020-04-03 16:00:00 14.9 6 Norte 13 Noroeste 0 -- -- 37
2020-04-03 15:00:00 13.8 7 Noroeste 14 Nordeste 0 -- -- 36
2020-04-03 14:00:00 12.7 9 Este 16 Nordeste 0 -- -- 38
2020-04-03 13:00:00 11.3 9 Nordeste 18 Nordeste 0 -- -- 43
2020-04-03 12:00:00 9.6 11 Norte 18 Nordeste 0 -- -- 52
2020-04-03 11:00:00 8 11 Norte 19 Nordeste 0 -- -- 59
2020-04-03 10:00:00 6.2 10 Nordeste 19 Norte 0 -- -- 65
2020-04-03 09:00:00 4.1 8 Nordeste 14 Nordeste 0 -- -- 75
2020-04-03 08:00:00 1.7 6 Nordeste 13 Norte 0 -- -- 80
2020-04-03 07:00:00 1.9 4 Nordeste 8 Norte 0 -- -- 86
2020-04-03 06:00:00 2.5 4 Nordeste 11 Nordeste 0 -- -- 88
2020-04-03 05:00:00 3.1 6 Nordeste 11 Nordeste 0 -- -- 89
2020-04-03 04:00:00 3.3 5 Nordeste 8 Nordeste 0 -- -- 88
2020-04-03 03:00:00 3.8 5 Nordeste 11 Nordeste 0 -- -- 87
2020-04-03 02:00:00 5.2 3 Nordeste 8 Nordeste 0 -- -- 83
2020-04-03 01:00:00 6.4 5 Nordeste 6 Este 0 -- -- 85
2020-04-03 00:00:00 7.6 2 Nordeste 7 Nordeste 0 -- -- 81
2020-04-02 23:00:00 8.4 7 Nordeste 25 Nordeste 0 -- -- 79
2020-04-02 22:00:00 8.8 16 Nordeste 31 Nordeste 0 -- -- 77
2020-04-02 21:00:00 8.7 12 Nordeste 40 Nordeste 0 -- -- 82
2020-04-02 20:00:00 10.7 17 Nordeste 36 Nordeste 0 -- -- 69
2020-04-02 19:00:00 11.5 23 Nordeste 39 Nordeste 0 -- -- 66
2020-04-02 18:00:00 12.6 16 Norte 32 Nordeste 0 -- -- 60
2020-04-02 17:00:00 12.8 16 Norte 26 Nordeste 0 -- -- 60
2020-04-02 16:00:00 12.9 16 Noroeste 28 Noroeste 0 -- -- 61
2020-04-02 15:00:00 13.1 11 Nordeste 26 Norte 0 -- -- 60
2020-04-02 14:00:00 11.5 15 Norte 26 Norte 0 -- -- 58
2020-04-02 13:00:00 10.3 13 Nordeste 19 Nordeste 0 -- -- 76
2020-04-02 12:00:00 7.6 9 Nordeste 19 Norte 0 -- -- 96
2020-04-02 11:00:00 4.7 10 Norte 16 Norte 0 -- -- 97
2020-04-02 10:00:00 3.1 9 Nordeste 15 Norte 0 -- -- 96
2020-04-02 09:00:00 2 0 Calma 5 Nordeste 0 -- -- 98
2020-04-02 08:00:00 -0.8 3 Nordeste 5 Nordeste 0 -- -- 96
2020-04-02 07:00:00 -0.5 0 Calma 3 Este 0 -- -- 95
2020-04-02 06:00:00 0.2 0 Calma 5 Norte 0 -- -- 95
2020-04-02 05:00:00 0.7 0 Calma 5 Noroeste 0 -- -- 94
2020-04-02 04:00:00 1.5 2 Sur 4 Sudeste 0 -- -- 94
2020-04-02 03:00:00 2.1 0 Calma 2 Sudoeste 0 -- -- 93
2020-04-02 02:00:00 2.8 0 Calma 4 Sudeste 0 -- -- 92
2020-04-02 01:00:00 4 3 Sudoeste 6 Norte 0 -- -- 92
2020-04-02 00:00:00 5.1 4 Norte 6 Norte 0 -- -- 90
2020-04-01 23:00:00 5.7 3 Nordeste 7 Nordeste 0 -- -- 86
2020-04-01 22:00:00 8.1 0 Calma 16 Noroeste 0 -- -- 80
2020-04-01 21:00:00 9.1 8 Noroeste 24 Oeste 0 -- -- 77
2020-04-01 20:00:00 10.6 12 Noroeste 20 Noroeste 0 -- -- 72
2020-04-01 19:00:00 12.6 7 Oeste 17 Oeste 0 -- -- 62
2020-04-01 18:00:00 12.8 10 Oeste 24 Oeste 0 -- -- 66
2020-04-01 17:00:00 10.6 6 Oeste 28 Oeste 0 -- -- 74
2020-04-01 16:00:00 10.1 15 Sudoeste 35 Oeste 0 -- -- 73
2020-04-01 15:00:00 11.6 12 Sudoeste 28 Sudoeste 0 -- -- 63
2020-04-01 14:00:00 11.2 6 Sudoeste 22 Sudoeste 0 -- -- 76
2020-04-01 13:00:00 10.6 7 Sudoeste 18 Oeste 0 -- -- 79
2020-04-01 12:00:00 9.6 5 Sudoeste 16 Sur 0.2 -- -- 85
2020-04-01 11:00:00 8.7 5 Sur 15 Sur 0 -- -- 90
2020-04-01 10:00:00 8.5 5 Sur 9 Sur 0 -- -- 93
2020-04-01 09:00:00 5.3 0 Calma 7 Sudeste 0 -- -- 96
2020-04-01 08:00:00 4.9 2 Sur 12 Sudeste 0 -- -- 95
2020-04-01 07:00:00 5.4 3 Sur 13 Sudeste 0 -- -- 95
2020-04-01 06:00:00 6.6 3 Sudeste 17 Sudeste 0 -- -- 95
2020-04-01 05:00:00 7.2 9 Sudeste 22 Sudeste 0.4 -- -- 96
2020-04-01 04:00:00 7.4 10 Sudeste 18 Sudeste 0.2 -- -- 94
2020-04-01 03:00:00 7.5 15 Sudeste 28 Sudeste 0 -- -- 93
2020-04-01 02:00:00 7.5 14 Sudeste 28 Sudeste 2.2 -- -- 94
2020-04-01 01:00:00 7.6 6 Sur 33 Sudeste 1.4 -- -- 94
2020-04-01 00:00:00 7.9 18 Sudeste 34 Sudeste 0.6 -- -- 93
2020-03-31 23:00:00 8.1 16 Sudeste 32 Sudeste 0.4 -- -- 93
2020-03-31 22:00:00 8 12 Sudeste 27 Sudeste 0 -- -- 94
2020-03-31 21:00:00 8.4 10 Sudeste 32 Sudeste 0 -- -- 90
2020-03-31 20:00:00 9.4 13 Sudeste 32 Sudeste 0.2 -- -- 89
2020-03-31 19:00:00 10 17 Sudeste 39 Este 0.2 -- -- 88
2020-03-31 18:00:00 10.8 19 Sudeste 37 Sudeste 0.2 -- -- 83
2020-03-31 17:00:00 9.5 17 Sudeste 35 Sudeste 0.2 -- -- 88
2020-03-31 16:00:00 9.2 15 Sudeste 39 Sudeste 0.4 -- -- 90
2020-03-31 15:00:00 9.4 26 Sudeste 46 Sudeste 0 -- -- 86
2020-03-31 14:00:00 9 27 Sudeste 46 Sur 0.2 -- -- 87
2020-03-31 13:00:00 6.9 26 Sudeste 48 Sudeste 0.6 -- -- 93
2020-03-31 12:00:00 6.5 23 Sudeste 50 Sudeste 0.2 -- -- 93
2020-03-31 11:00:00 5.3 20 Sudeste 37 Sudeste 1 -- -- 95
2020-03-31 10:00:00 4.4 11 Sudeste 28 Sudeste 1.4 -- -- 95
2020-03-31 09:00:00 3.8 15 Sudeste 34 Sudeste 1.2 -- -- 95
2020-03-31 08:00:00 3.6 18 Sudeste 34 Sudeste 0.6 -- -- 94
2020-03-31 07:00:00 3.4 15 Sudeste 35 Sudeste 0.4 -- -- 94
2020-03-31 06:00:00 3.1 17 Sudeste 38 Sudeste 0.2 -- -- 94
2020-03-31 05:00:00 2.8 15 Sudeste 33 Este 0.6 -- -- 95
2020-03-31 04:00:00 2.6 13 Sudeste 33 Este 0.6 -- -- 96
2020-03-31 03:00:00 1.5 8 Este 24 Este 0.6 -- -- 99
2020-03-31 02:00:00 0.4 8 Nordeste 18 Nordeste 0.6 -- -- 97
2020-03-31 01:00:00 0.4 13 Nordeste 21 Nordeste 1.2 -- -- 97
2020-03-31 00:00:00 0.3 13 Nordeste 18 Nordeste 0.8 -- -- 96
2020-03-30 23:00:00 0.5 11 Nordeste 23 Nordeste 1 -- -- 96
2020-03-30 22:00:00 0.5 12 Nordeste 28 Nordeste 0.8 -- -- 96
2020-03-30 21:00:00 0.9 15 Nordeste 29 Nordeste 0.8 -- -- 94
2020-03-30 20:00:00 1.6 15 Nordeste 33 Nordeste 0.2 -- -- 90
2020-03-30 19:00:00 2.1 18 Nordeste 33 Nordeste 0 -- -- 87
2020-03-30 18:00:00 3.2 20 Nordeste 42 Norte 0 -- -- 80
2020-03-30 17:00:00 4 22 Norte 41 Norte 0 -- -- 75
2020-03-30 16:00:00 6.5 22 Norte 35 Nordeste 0 -- -- 66
2020-03-30 15:00:00 7.7 18 Norte 33 Norte 0 -- -- 64
2020-03-30 14:00:00 6.8 17 Norte 30 Norte 0 -- -- 66
2020-03-30 13:00:00 5.8 13 Norte 31 Norte 0 -- -- 69
2020-03-30 12:00:00 5.3 17 Nordeste 31 Nordeste 0 -- -- 73
2020-03-30 11:00:00 5.1 20 Norte 35 Norte 0 -- -- 73
2020-03-30 10:00:00 4.9 17 Norte 31 Norte 0 -- -- 74
2020-03-30 09:00:00 4.8 8 Nordeste 25 Nordeste 0 -- -- 78
2020-03-30 08:00:00 4.9 16 Norte 28 Norte 0 -- -- 78
2020-03-30 07:00:00 5.1 17 Norte 27 Norte 0 -- -- 81
2020-03-30 06:00:00 5.5 12 Nordeste 23 Nordeste 0 -- -- 78
2020-03-30 05:00:00 5.7 11 Norte 17 Nordeste 0 -- -- 78
2020-03-30 04:00:00 6.1 6 Nordeste 15 Norte 0 -- -- 76
2020-03-30 03:00:00 7 8 Norte 15 Nordeste 0 -- -- 72
2020-03-30 02:00:00 7.9 6 Norte 15 Nordeste 0 -- -- 66
2020-03-30 01:00:00 8.3 5 Nordeste 15 Nordeste 0 -- -- 66
2020-03-30 00:00:00 7.7 0 Calma 3 Oeste 0 -- -- 66
2020-03-29 23:00:00 8.5 0 Calma 3 Sudoeste 0 -- -- 63
2020-03-29 22:00:00 10.2 0 Calma 9 Oeste 0 -- -- 56
2020-03-29 21:00:00 11.6 3 Oeste 13 Oeste 0 -- -- 53
2020-03-29 20:00:00 14.1 5 Oeste 16 Oeste 0 -- -- 45
2020-03-29 19:00:00 16.7 10 Oeste 27 Oeste 0 -- -- 41
2020-03-29 18:00:00 17.2 10 Oeste 21 Oeste 0 -- -- 39
2020-03-29 17:00:00 17.1 12 Oeste 26 Oeste 0 -- -- 41
2020-03-29 16:00:00 16.8 12 Noroeste 26 Oeste 0 -- -- 44
2020-03-29 15:00:00 16 10 Oeste 21 Oeste 0 -- -- 44
2020-03-29 14:00:00 15 11 Noroeste 22 Noroeste 0 -- -- 42
2020-03-29 13:00:00 13.6 13 Noroeste 25 Noroeste 0 -- -- 45
2020-03-29 12:00:00 12.6 8 Noroeste 15 Oeste 0 -- -- 51
2020-03-29 11:00:00 9.7 3 Oeste 5 Noroeste 0 -- -- 74
2020-03-29 10:00:00 6.2 0 Calma 5 Norte 0 -- -- 83
2020-03-29 09:00:00 1.2 0 Calma 2 Norte 0 -- -- 92
2020-03-29 08:00:00 -0.6 0 Calma 0 Calma 0 -- -- 93
2020-03-29 07:00:00 -0.1 0 Calma 0 Calma 0 -- -- 92
2020-03-29 06:00:00 0.5 0 Calma 2 Sur 0 -- -- 91
2020-03-29 05:00:00 1.1 0 Calma 3 Sur 0 -- -- 88
2020-03-29 03:00:00 2.3 2 Sur 4 Sur 0 -- -- 86
2020-03-29 01:00:00 3.2 0 Calma 4 Sur 0 -- -- 83
2020-03-29 00:00:00 4.1 0 Calma 7 Sur 0 -- -- 79
2020-03-28 23:00:00 4.9 3 Sur 5 Sur 0 -- -- 76
2020-03-28 22:00:00 5.9 3 Sur 4 Sur 0 -- -- 74
2020-03-28 21:00:00 7.7 0 Calma 9 Sudeste 0 -- -- 67
2020-03-28 20:00:00 10.2 2 Sur 11 Oeste 0 -- -- 55
2020-03-28 19:00:00 12.6 5 Sudoeste 12 Sudoeste 0 -- -- 46
2020-03-28 18:00:00 14.4 5 Oeste 17 Sudoeste 0 -- -- 42
2020-03-28 17:00:00 14 3 Sur 12 Este 0 -- -- 42
2020-03-28 16:00:00 12.8 3 Nordeste 9 Nordeste 0 -- -- 43
2020-03-28 15:00:00 13.4 0 Calma 14 Norte 0 -- -- 42
2020-03-28 14:00:00 12.5 5 Nordeste 18 Este 0 -- -- 44
2020-03-28 13:00:00 11.5 7 Nordeste 17 Nordeste 0 -- -- 47
2020-03-28 12:00:00 10.1 8 Nordeste 14 Nordeste 0 -- -- 45
2020-03-28 11:00:00 7.9 6 Nordeste 14 Nordeste 0 -- -- 64
2020-03-28 10:00:00 4.8 8 Nordeste 16 Nordeste 0 -- -- 95
2020-03-28 09:00:00 0.9 8 Norte 17 Nordeste 0 -- -- 98
2020-03-28 08:00:00 -0.5 11 Nordeste 18 Nordeste 0 -- -- 97
2020-03-28 07:00:00 -0.7 14 Nordeste 22 Nordeste 0 -- -- 96
2020-03-28 06:00:00 -1.5 0 Calma 5 Nordeste 0 -- -- 94
2020-03-28 05:00:00 -0.7 4 Nordeste 9 Nordeste 0 -- -- 94
2020-03-28 04:00:00 -0.1 4 Nordeste 11 Nordeste 0 -- -- 91
2020-03-28 03:00:00 0.1 5 Nordeste 11 Nordeste 0 -- -- 92
2020-03-28 02:00:00 0.4 6 Este 13 Nordeste 0 -- -- 92
2020-03-28 01:00:00 0.7 7 Nordeste 12 Nordeste 0 -- -- 93
2020-03-28 00:00:00 -0.4 5 Nordeste 8 Nordeste 0 -- -- 91
2020-03-27 23:00:00 0.4 5 Nordeste 8 Nordeste 0 -- -- 89
2020-03-27 22:00:00 2.1 4 Nordeste 10 Este 0 -- -- 90
2020-03-27 21:00:00 3.3 6 Este 11 Sudeste 0 -- -- 83
2020-03-27 20:00:00 4.2 6 Nordeste 21 Sudeste 0 -- -- 83
2020-03-27 19:00:00 5.8 10 Sudeste 29 Sudeste 0 -- -- 77
2020-03-27 18:00:00 6.7 16 Sudeste 31 Sudeste 0 -- -- 74
2020-03-27 17:00:00 6.8 14 Sudeste 35 Este 0 -- -- 75
2020-03-27 16:00:00 6.8 21 Este 37 Este 0 -- -- 75
2020-03-27 15:00:00 6.3 18 Sudeste 39 Sudeste 0 -- -- 78
2020-03-27 14:00:00 5.8 19 Sudeste 38 Sudeste 0.2 -- -- 82
2020-03-27 13:00:00 4.2 20 Sudeste 36 Este 0.2 -- -- 90
2020-03-27 12:00:00 2.4 14 Sudeste 29 Sudeste 0.8 -- -- 93
2020-03-27 11:00:00 1.2 10 Este 19 Nordeste 0.2 -- -- 95
2020-03-27 10:00:00 1.4 12 Nordeste 23 Nordeste 0 -- -- 94
2020-03-27 09:00:00 1.2 15 Nordeste 27 Nordeste 0.6 -- -- 94
2020-03-27 08:00:00 0.4 13 Nordeste 27 Nordeste 0 -- -- 94
2020-03-27 07:00:00 1.9 19 Este 31 Nordeste 0 -- -- 81
2020-03-27 06:00:00 2.6 12 Este 20 Este 0 -- -- 80
2020-03-27 05:00:00 2.9 9 Nordeste 29 Este 0 -- -- 83
2020-03-27 04:00:00 3.3 14 Sudeste 34 Sudeste 0 -- -- 82
2020-03-27 03:00:00 3.4 13 Sudeste 30 Sudeste 0 -- -- 86
2020-03-27 02:00:00 3.5 13 Sudeste 24 Sudeste 0 -- -- 81
2020-03-27 01:00:00 2.3 10 Este 13 Este 0 -- -- 71
2020-03-27 00:00:00 2.3 6 Nordeste 18 Nordeste 0 -- -- 72
2020-03-26 23:00:00 2.7 6 Este 10 Este 0 -- -- 71
2020-03-26 22:00:00 3.4 0 Calma 5 Nordeste 0 -- -- 70
2020-03-26 21:00:00 4.8 4 Este 14 Nordeste 0 -- -- 66
2020-03-26 20:00:00 7.5 6 Nordeste 17 Nordeste 0 -- -- 58
2020-03-26 19:00:00 9.8 10 Nordeste 24 Norte 0 -- -- 50
2020-03-26 18:00:00 11.7 14 Nordeste 27 Nordeste 0 -- -- 45
2020-03-26 17:00:00 12.4 11 Norte 27 Noroeste 0 -- -- 46
2020-03-26 16:00:00 13.2 12 Norte 37 Oeste 0 -- -- 40
2020-03-26 15:00:00 12.9 18 Noroeste 35 Noroeste 0 -- -- 35
2020-03-26 14:00:00 12 21 Noroeste 36 Noroeste 0 -- -- 35
2020-03-26 13:00:00 11.1 18 Noroeste 31 Noroeste 0 -- -- 36
2020-03-26 12:00:00 9.7 11 Norte 25 Nordeste 0 -- -- 47
2020-03-26 11:00:00 7.8 17 Nordeste 30 Norte 0 -- -- 58
2020-03-26 10:00:00 6.5 14 Norte 29 Norte 0 -- -- 65
2020-03-26 09:00:00 4.7 11 Norte 24 Norte 0 -- -- 75
2020-03-26 08:00:00 2.3 7 Norte 17 Norte 0 -- -- 93
2020-03-26 07:00:00 1.3 8 Norte 13 Norte 0 -- -- 96
2020-03-26 06:00:00 2.5 6 Nordeste 12 Norte 0 -- -- 94
2020-03-26 05:00:00 4.1 3 Oeste 7 Oeste 0 -- -- 93
2020-03-26 04:00:00 4.3 3 Sur 4 Sur 0 -- -- 95
2020-03-26 03:00:00 3.6 2 Sur 4 Sudoeste 0 -- -- 94
2020-03-26 02:00:00 3.9 0 Calma 8 Sur 0 -- -- 91
2020-03-26 01:00:00 4.9 6 Sur 15 Sudeste 0 -- -- 90
2020-03-26 00:00:00 5.5 8 Sudeste 18 Sudeste 0 -- -- 88
2020-03-25 23:00:00 6 5 Sur 11 Sur 0 -- -- 84
2020-03-25 22:00:00 6.9 10 Sudeste 17 Sudeste 0 -- -- 81
2020-03-25 21:00:00 8.4 6 Sur 14 Este 0 -- -- 75
2020-03-25 20:00:00 10.7 3 Oeste 12 Sudoeste 0 -- -- 63
2020-03-25 19:00:00 12.3 5 Oeste 21 Noroeste 0 -- -- 56
2020-03-25 18:00:00 13.7 10 Oeste 26 Oeste 0 -- -- 51
2020-03-25 17:00:00 14.1 12 Oeste 26 Oeste 0 -- -- 51
2020-03-25 16:00:00 13.8 9 Oeste 26 Sudoeste 0 -- -- 51
2020-03-25 15:00:00 13.1 8 Sudoeste 22 Oeste 0 -- -- 54
2020-03-25 14:00:00 12.7 10 Oeste 28 Oeste 0 -- -- 60
2020-03-25 13:00:00 10.3 4 Oeste 15 Noroeste 0 -- -- 64
2020-03-25 12:00:00 10.6 5 Oeste 15 Sur 0 -- -- 64
2020-03-25 11:00:00 9.2 5 Sur 10 Sudoeste 0 -- -- 69
2020-03-25 10:00:00 6.4 2 Oeste 7 Noroeste 0 -- -- 82
2020-03-25 09:00:00 4.4 2 Noroeste 5 Noroeste 0 -- -- 93
2020-03-25 08:00:00 3.3 0 Calma 3 Sur 0 -- -- 91
2020-03-25 07:00:00 4.2 0 Calma 6 Oeste 0 -- -- 91
2020-03-25 06:00:00 4.4 2 Noroeste 4 Sudoeste 0 -- -- 91
2020-03-25 05:00:00 4.5 3 Sudeste 8 Sur 0 -- -- 89
2020-03-25 04:00:00 4.7 3 Sudeste 10 Sudeste 0 -- -- 89
2020-03-25 03:00:00 4.5 2 Sur 9 Sudeste 0 -- -- 91
2020-03-25 02:00:00 4.5 3 Sudeste 18 Sudeste 0 -- -- 90
2020-03-25 01:00:00 5.2 8 Sudeste 16 Sudeste 0 -- -- 90
2020-03-25 00:00:00 5.4 8 Sudeste 17 Sudeste 0 -- -- 88
2020-03-24 23:00:00 5.9 9 Sudeste 22 Sudeste 0 -- -- 86
2020-03-24 22:00:00 7.1 3 Sur 8 Sur 0 -- -- 81
2020-03-24 21:00:00 7.7 7 Sudeste 20 Sudeste 0 -- -- 78
2020-03-24 20:00:00 8 5 Sudeste 16 Sudeste 0 -- -- 80
2020-03-24 19:00:00 9.8 10 Sudeste 23 Sudeste 0 -- -- 72
2020-03-24 18:00:00 11.2 13 Sudeste 25 Sudeste 0 -- -- 64
2020-03-24 17:00:00 11.5 12 Sudeste 25 Sudeste 0 -- -- 65
2020-03-24 16:00:00 11.3 14 Sudeste 27 Sudeste 0 -- -- 65
2020-03-24 15:00:00 12.2 12 Sudeste 31 Este 0 -- -- 64
2020-03-24 14:00:00 12 20 Este 36 Este 0 -- -- 66
2020-03-24 13:00:00 11.9 16 Sudeste 32 Este 0 -- -- 66
2020-03-24 12:00:00 11.7 19 Este 31 Este 0 -- -- 67
2020-03-24 11:00:00 11 12 Este 21 Nordeste 0 -- -- 76
2020-03-24 10:00:00 8.2 10 Nordeste 17 Nordeste 0 -- -- 84
2020-03-24 09:00:00 7.1 9 Nordeste 15 Nordeste 0 -- -- 87
2020-03-24 08:00:00 5.9 8 Nordeste 16 Este 0 -- -- 90
2020-03-24 07:00:00 6.2 12 Nordeste 18 Nordeste 0 -- -- 87
2020-03-24 06:00:00 6 9 Este 20 Nordeste 0 -- -- 90
2020-03-24 05:00:00 6 7 Nordeste 14 Nordeste 0.2 -- -- 92
2020-03-24 04:00:00 6.8 9 Nordeste 16 Este 0 -- -- 86
2020-03-24 03:00:00 7.4 10 Este 25 Este 0 -- -- 83
2020-03-24 02:00:00 6.7 10 Este 21 Nordeste 0 -- -- 87
2020-03-24 01:00:00 7.1 12 Nordeste 20 Nordeste 0 -- -- 86
2020-03-24 00:00:00 7.6 12 Este 18 Este 0 -- -- 84
2020-03-23 23:00:00 6.7 9 Este 23 Este 0 -- -- 87
2020-03-23 22:00:00 8 16 Este 24 Este 0 -- -- 82
2020-03-23 21:00:00 7.9 15 Este 24 Sudeste 0 -- -- 81
2020-03-23 20:00:00 8.3 12 Este 25 Sudeste 0 -- -- 82
2020-03-23 19:00:00 9.2 13 Este 30 Este 0 -- -- 80
2020-03-23 18:00:00 10.4 19 Este 31 Este 0 -- -- 76
2020-03-23 17:00:00 10.5 20 Este 30 Este 0 -- -- 75
2020-03-23 16:00:00 10 12 Sudeste 38 Sudeste 0 -- -- 79
2020-03-23 15:00:00 9 25 Sudeste 42 Este 1 -- -- 82
2020-03-23 14:00:00 11.8 17 Sudeste 28 Sudeste 0 -- -- 71
2020-03-23 13:00:00 11 18 Este 36 Este 0 -- -- 72
2020-03-23 12:00:00 9.8 20 Este 33 Este 0 -- -- 79
2020-03-23 11:00:00 9.2 18 Este 30 Este 0 -- -- 84
2020-03-23 10:00:00 8 15 Este 27 Este 0.4 -- -- 91
2020-03-23 09:00:00 6.9 7 Nordeste 12 Nordeste 0 -- -- 97
2020-03-23 08:00:00 6.4 7 Nordeste 15 Nordeste 0.2 -- -- 97
2020-03-23 07:00:00 6.2 8 Este 14 Nordeste 0 -- -- 96
2020-03-23 06:00:00 6.1 7 Nordeste 23 Este 0.4 -- -- 94
2020-03-23 05:00:00 5.9 10 Este 18 Este 0.4 -- -- 93
2020-03-23 04:00:00 6.3 15 Este 25 Este 1 -- -- 92
2020-03-23 03:00:00 6.8 6 Este 15 Este 0 -- -- 94
2020-03-23 02:00:00 6.9 8 Este 13 Este 0 -- -- 95
2020-03-23 01:00:00 6.8 9 Este 14 Este 0.4 -- -- 95
2020-03-23 00:00:00 7 7 Este 14 Este 0.2 -- -- 94
2020-03-22 23:00:00 7.1 6 Este 17 Este 2 -- -- 94
2020-03-22 22:00:00 7.3 10 Este 16 Este 1 -- -- 94
2020-03-22 21:00:00 7.3 4 Sudeste 8 Este 0.2 -- -- 95
2020-03-22 20:00:00 7.3 4 Este 10 Sudeste 0.6 -- -- 92
2020-03-22 19:00:00 7.5 5 Sudeste 25 Sudeste 2.8 -- -- 88
2020-03-22 18:00:00 9.1 2 Nordeste 12 Este 0.2 -- -- 83
2020-03-22 17:00:00 9 9 Este 21 Sudeste 0 -- -- 81
2020-03-22 16:00:00 9.7 12 Sudeste 25 Este 0.6 -- -- 83
2020-03-22 15:00:00 10 7 Sudeste 27 Sudeste 0.6 -- -- 78
2020-03-22 14:00:00 11.5 11 Nordeste 21 Nordeste 0 -- -- 70
2020-03-22 13:00:00 11 11 Nordeste 22 Nordeste 0 -- -- 76
2020-03-22 12:00:00 10 11 Nordeste 20 Nordeste 0 -- -- 74
2020-03-22 11:00:00 8.3 10 Nordeste 19 Norte 0 -- -- 86
2020-03-22 10:00:00 6.3 11 Nordeste 17 Nordeste 0 -- -- 98
2020-03-22 09:00:00 4.1 9 Nordeste 14 Nordeste 0 -- -- 98
2020-03-22 08:00:00 1.7 6 Nordeste 10 Nordeste 0.2 -- -- 98
2020-03-22 07:00:00 1.3 9 Nordeste 13 Nordeste 0 -- -- 98
2020-03-22 06:00:00 1.5 9 Nordeste 14 Nordeste 0 -- -- 98
2020-03-22 05:00:00 1.6 8 Nordeste 12 Nordeste 0 -- -- 97
2020-03-22 04:00:00 2.1 4 Nordeste 8 Este 0 -- -- 97
2020-03-22 03:00:00 3 5 Este 12 Nordeste 0 -- -- 96
2020-03-22 02:00:00 3.5 6 Nordeste 10 Nordeste 0 -- -- 95
2020-03-22 01:00:00 4.5 3 Nordeste 9 Nordeste 0 -- -- 95
2020-03-22 00:00:00 4.5 6 Este 10 Este 0 -- -- 95
2020-03-21 23:00:00 4.9 6 Este 13 Este 0 -- -- 94
2020-03-21 22:00:00 5.1 11 Este 15 Este 0.4 -- -- 93
2020-03-21 21:00:00 5.2 10 Este 17 Sudeste 0.8 -- -- 93
2020-03-21 20:00:00 5.5 5 Sudeste 14 Sudeste 0.2 -- -- 91
2020-03-21 19:00:00 6 7 Sudeste 14 Sur 0.4 -- -- 91
2020-03-21 18:00:00 6.7 4 Sur 13 Sudeste 0.2 -- -- 86
2020-03-21 17:00:00 7 4 Sudeste 12 Sur 0 -- -- 88
2020-03-21 16:00:00 7 5 Sur 17 Sudoeste 0.2 -- -- 88
2020-03-21 15:00:00 7.9 10 Sudoeste 20 Sudoeste 0 -- -- 80
2020-03-21 14:00:00 7.1 3 Sur 16 Sudoeste 0 -- -- 91
2020-03-21 13:00:00 7.5 9 Sudoeste 24 Sudoeste 0 -- -- 87
2020-03-21 12:00:00 8.4 13 Sudeste 28 Este 0 -- -- 86
2020-03-21 11:00:00 8.1 14 Sudeste 34 Sudeste 0 -- -- 86
2020-03-21 10:00:00 7.8 16 Sudeste 33 Sudeste 0 -- -- 88
2020-03-21 09:00:00 7.1 14 Sudeste 32 Sudeste 0 -- -- 90
2020-03-21 08:00:00 6.4 13 Sudeste 26 Sudeste 0 -- -- 92
2020-03-21 07:00:00 5.4 8 Sudeste 14 Sudeste 0 -- -- 92
2020-03-21 06:00:00 5.8 7 Este 13 Este 0 -- -- 91
2020-03-21 05:00:00 5.4 5 Nordeste 14 Este 0 -- -- 91
2020-03-21 04:00:00 6.4 7 Sudeste 17 Sudeste 0 -- -- 87
2020-03-21 03:00:00 5.8 10 Este 23 Sudeste 0 -- -- 91
2020-03-21 02:00:00 5.3 13 Sudeste 33 Sudeste 0 -- -- 88
2020-03-21 01:00:00 5.6 18 Sudeste 44 Sudeste 0 -- -- 90
2020-03-21 00:00:00 6.4 17 Sudeste 35 Sudeste 0 -- -- 90
2020-03-20 23:00:00 6.4 8 Sudeste 15 Este 0 -- -- 91
2020-03-20 22:00:00 6.8 7 Este 17 Este 0 -- -- 88
2020-03-20 21:00:00 6.8 4 Este 8 Este 0 -- -- 90
2020-03-20 20:00:00 7.9 2 Oeste 22 Sudeste 0 -- -- 85
2020-03-20 19:00:00 9.3 10 Sudeste 33 Sudeste 0 -- -- 81
2020-03-20 18:00:00 9.7 17 Sudeste 35 Este 0 -- -- 79
2020-03-20 17:00:00 10.3 19 Sudeste 36 Sudeste 0 -- -- 76
2020-03-20 16:00:00 10.3 19 Sudeste 36 Sudeste 0 -- -- 74
2020-03-20 15:00:00 10.5 19 Sudeste 35 Sudeste 0 -- -- 73
2020-03-20 14:00:00 9.7 19 Sudeste 36 Sudeste 0 -- -- 77
2020-03-20 13:00:00 9.6 16 Sudeste 34 Este 0 -- -- 76
2020-03-20 12:00:00 9.4 12 Sudeste 28 Sudeste 0 -- -- 77
2020-03-20 11:00:00 9 14 Sudeste 30 Sudeste 0 -- -- 80
2020-03-20 10:00:00 8.5 11 Sudeste 21 Sudeste 0 -- -- 85
2020-03-20 09:00:00 7 7 Este 13 Este 0 -- -- 89
2020-03-20 08:00:00 4.5 5 Nordeste 8 Nordeste 0 -- -- 93
2020-03-20 07:00:00 4.3 5 Nordeste 8 Este 0 -- -- 91
2020-03-20 06:00:00 5 4 Este 12 Este 0 -- -- 88
2020-03-20 05:00:00 6.6 7 Sudeste 25 Sudeste 0 -- -- 85
2020-03-20 04:00:00 7 12 Sudeste 42 Sudeste 0 -- -- 83
2020-03-20 03:00:00 7.6 21 Sudeste 41 Sudeste 0 -- -- 80
2020-03-20 02:00:00 7.8 20 Sudeste 39 Sudeste 0 -- -- 79
2020-03-20 01:00:00 8.2 16 Sudeste 40 Sudeste 0 -- -- 80
2020-03-20 00:00:00 8.3 19 Sudeste 44 Sudeste 0 -- -- 81
2020-03-19 23:00:00 8.6 26 Sudeste 48 Sudeste 0 -- -- 83
2020-03-19 22:00:00 8.8 18 Sudeste 38 Sur 0 -- -- 81
2020-03-19 21:00:00 8.9 17 Sudeste 44 Sudeste 0 -- -- 80
2020-03-19 20:00:00 9.4 17 Sudeste 31 Sudeste 0 -- -- 78
2020-03-19 19:00:00 10.7 15 Sudeste 34 Sudeste 0 -- -- 72
2020-03-19 18:00:00 12.1 16 Sudeste 31 Sudeste 0 -- -- 66
2020-03-19 17:00:00 13.2 14 Sudeste 30 Sudeste 0 -- -- 63
2020-03-19 16:00:00 13.4 15 Sudeste 36 Este 0 -- -- 62
2020-03-19 15:00:00 12.6 16 Sudeste 33 Sudeste 0 -- -- 64
2020-03-19 14:00:00 13.8 14 Sudeste 33 Sudeste 0 -- -- 61
2020-03-19 13:00:00 12.1 18 Sudeste 32 Este 0 -- -- 67
2020-03-19 12:00:00 11.3 18 Sudeste 32 Este 0 -- -- 69
2020-03-19 11:00:00 10.2 17 Sudeste 34 Este 0 -- -- 74
2020-03-19 10:00:00 8.7 18 Este 31 Este 0 -- -- 79
2020-03-19 09:00:00 6.6 10 Este 22 Nordeste 0 -- -- 89
2020-03-19 08:00:00 4.3 4 Nordeste 15 Este 0 -- -- 93
2020-03-19 07:00:00 4.2 11 Este 21 Sudeste 0 -- -- 91
2020-03-19 06:00:00 4.5 7 Sudeste 16 Sudeste 0 -- -- 91
2020-03-19 05:00:00 4.8 3 Oeste 10 Oeste 0 -- -- 92
2020-03-19 04:00:00 5.5 7 Este 15 Este 0 -- -- 93
2020-03-19 03:00:00 6.2 4 Sudeste 14 Sudeste 0 -- -- 93
2020-03-19 02:00:00 6.4 8 Sudeste 16 Sudeste 0 -- -- 91
2020-03-19 01:00:00 7.3 7 Sudeste 17 Sudeste 0 -- -- 85
2020-03-19 00:00:00 8 3 Sur 13 Sudeste 0 -- -- 83
2020-03-18 23:00:00 8.6 7 Sudeste 12 Este 0 -- -- 85
2020-03-18 22:00:00 8.4 3 Este 5 Sudeste 0 -- -- 85
2020-03-18 21:00:00 10.2 3 Sur 6 Sur 0 -- -- 78
2020-03-18 20:00:00 11.5 2 Sur 6 Sur 0 -- -- 75
2020-03-18 19:00:00 12.8 5 Sur 14 Sur 0 -- -- 70
2020-03-18 18:00:00 14.1 3 Sudoeste 21 Sur 0 -- -- 63
2020-03-18 17:00:00 15.4 7 Sudeste 17 Este 0 -- -- 60
2020-03-18 16:00:00 15.9 8 Sudeste 20 Este 0 -- -- 59
2020-03-18 15:00:00 14.1 7 Este 14 Este 0 -- -- 66
2020-03-18 14:00:00 13.2 7 Sudeste 14 Sur 0 -- -- 67
2020-03-18 13:00:00 12.5 3 Sur 9 Nordeste 0 -- -- 66
2020-03-18 12:00:00 11.9 0 Calma 6 Este 0 -- -- 73
2020-03-18 11:00:00 10.6 3 Norte 5 Noroeste 0 -- -- 76
2020-03-18 10:00:00 8.9 3 Nordeste 14 Este 0 -- -- 83
2020-03-18 09:00:00 7.3 6 Nordeste 10 Nordeste 0 -- -- 87
2020-03-18 08:00:00 6.4 5 Nordeste 8 Nordeste 0 -- -- 89
2020-03-18 07:00:00 5.8 4 Este 6 Este 0 -- -- 90
2020-03-18 06:00:00 6.6 0 Calma 10 Sudeste 0 -- -- 87
2020-03-18 05:00:00 6.4 7 Este 10 Este 0 -- -- 92
2020-03-18 04:00:00 7.2 7 Nordeste 18 Este 0 -- -- 90
2020-03-18 03:00:00 6.9 6 Nordeste 14 Nordeste 0 -- -- 89
2020-03-18 02:00:00 7.4 9 Nordeste 15 Nordeste 0 -- -- 91
2020-03-18 01:00:00 7.7 9 Nordeste 13 Nordeste 0 -- -- 89
2020-03-18 00:00:00 8.9 9 Este 16 Este 0 -- -- 78
2020-03-17 23:00:00 9 8 Este 19 Este 0 -- -- 81
2020-03-17 22:00:00 9.6 12 Este 24 Este 0 -- -- 80
2020-03-17 21:00:00 9.2 7 Este 22 Este 0 -- -- 84
2020-03-17 20:00:00 9.6 10 Nordeste 15 Este 0 -- -- 89
2020-03-17 19:00:00 10.5 8 Nordeste 18 Este 0 -- -- 81
2020-03-17 18:00:00 10.8 9 Sudeste 37 Este 0 -- -- 80
2020-03-17 17:00:00 11.5 10 Este 41 Este 0 -- -- 76
2020-03-17 16:00:00 13 30 Este 48 Este 0 -- -- 72
2020-03-17 15:00:00 12.8 25 Este 44 Este 0 -- -- 74
2020-03-17 14:00:00 12.3 19 Sudeste 38 Este 0 -- -- 79
2020-03-17 13:00:00 12.7 21 Este 39 Este 0 -- -- 72
2020-03-17 12:00:00 10.6 14 Este 29 Este 0 -- -- 82
2020-03-17 11:00:00 8.7 10 Nordeste 28 Este 0 -- -- 89
2020-03-17 10:00:00 6 10 Nordeste 20 Nordeste 0 -- -- 96
2020-03-17 09:00:00 4.5 9 Nordeste 19 Nordeste 0 -- -- 96
2020-03-17 08:00:00 4.3 11 Nordeste 19 Nordeste 0 -- -- 97
2020-03-17 07:00:00 4 9 Nordeste 22 Nordeste 0.4 -- -- 97
2020-03-17 06:00:00 3.6 13 Nordeste 26 Nordeste 0 -- -- 96
2020-03-17 05:00:00 3.6 13 Nordeste 23 Nordeste 0 -- -- 95
2020-03-17 04:00:00 3.3 15 Nordeste 24 Nordeste 0 -- -- 95
2020-03-17 03:00:00 3.2 11 Nordeste 20 Nordeste 0 -- -- 93
2020-03-17 02:00:00 3 10 Nordeste 22 Nordeste 0 -- -- 92
2020-03-17 01:00:00 3.1 9 Nordeste 15 Nordeste 0 -- -- 90
2020-03-17 00:00:00 3.7 9 Nordeste 16 Nordeste 0 -- -- 94
2020-03-16 23:00:00 3.5 9 Nordeste 16 Nordeste 0 -- -- 94
2020-03-16 22:00:00 3.4 6 Nordeste 16 Nordeste 0 -- -- 93
2020-03-16 21:00:00 2.9 8 Nordeste 14 Nordeste 0 -- -- 91
2020-03-16 20:00:00 4.2 5 Este 15 Este 0 -- -- 80
2020-03-16 19:00:00 5.1 7 Este 24 Nordeste 0 -- -- 77
2020-03-16 18:00:00 6.6 11 Este 24 Este 0 -- -- 68
2020-03-16 17:00:00 7.3 14 Este 29 Este 0 -- -- 60
2020-03-16 16:00:00 6.6 15 Este 29 Este 0.2 -- -- 65
2020-03-16 15:00:00 6.9 12 Sudeste 26 Sur 0 -- -- 64
2020-03-16 14:00:00 7.8 12 Sudeste 24 Sudeste 0 -- -- 67
2020-03-16 13:00:00 5.9 7 Sur 19 Sur 0 -- -- 72
2020-03-16 12:00:00 5.5 6 Sur 14 Sudoeste 0 -- -- 82
2020-03-16 11:00:00 3.9 7 Sudoeste 16 Sudoeste 0 -- -- 82
2020-03-16 10:00:00 3.8 5 Sur 18 Sur 0 -- -- 88
2020-03-16 09:00:00 2.9 10 Sur 19 Sur 0.2 -- -- 94
2020-03-16 08:00:00 2.9 8 Sur 21 Sudoeste 1.2 -- -- 93
2020-03-16 07:00:00 3.5 3 Sudoeste 28 Oeste 1.4 -- -- 94
2020-03-16 06:00:00 4.2 15 Oeste 35 Oeste 0.8 -- -- 93
2020-03-16 05:00:00 5.9 10 Oeste 22 Oeste 2.8 -- -- 93
2020-03-16 04:00:00 6.4 5 Sudoeste 33 Oeste 4.6 -- -- 91
2020-03-16 03:00:00 8.4 11 Sudoeste 28 Oeste -- -- -- 92
2020-03-16 02:00:00 8.4 13 Sur 27 Sur 1.8 -- -- 91
2020-03-16 01:00:00 8.7 13 Sur 28 Sur 2.2 -- -- 89
2020-03-16 00:00:00 9.3 10 Sur 22 Sur 1 -- -- 86
2020-03-15 23:00:00 9.8 6 Sudeste 16 Sudoeste 0.4 -- -- 87
2020-03-15 22:00:00 10 0 Calma 24 Oeste 0.4 -- -- 82
2020-03-15 21:00:00 9.8 5 Sudoeste 28 Sudeste 0 -- -- 83
2020-03-15 20:00:00 10.4 14 Sudeste 25 Sudeste 0 -- -- 80
2020-03-15 19:00:00 11.5 3 Sudeste 16 Sudeste 0 -- -- 75
2020-03-15 18:00:00 11.8 4 Norte 18 Sudeste 0.6 -- -- 79
2020-03-15 17:00:00 11.8 8 Este 13 Nordeste 0.4 -- -- 87
2020-03-15 16:00:00 12.9 3 Este 22 Noroeste 0.2 -- -- 80
2020-03-15 15:00:00 -- 9 Sur 75 Norte -- -- -- --
2020-03-15 14:00:00 17.8 13 Sur 29 Sur 0 -- -- 59
2020-03-15 13:00:00 16.4 17 Sur 26 Sur 0 -- -- 66
2020-03-15 12:00:00 14 12 Sudeste 29 Sur 0 -- -- 72
2020-03-15 11:00:00 12.8 15 Sudeste 33 Sudeste 0 -- -- 74
2020-03-15 10:00:00 12 20 Sudeste 31 Sudeste 0 -- -- 78
2020-03-15 09:00:00 9.5 15 Sur 29 Sudeste 0 -- -- 87
2020-03-15 08:00:00 8.6 12 Sudeste 24 Sudeste 0 -- -- 88
2020-03-15 07:00:00 9 14 Sudeste 26 Sudeste 0 -- -- 86
2020-03-15 06:00:00 9.4 14 Sudeste 26 Sudeste 0 -- -- 85
2020-03-15 05:00:00 9.4 12 Sudeste 24 Sudeste 0 -- -- 85
2020-03-15 04:00:00 9.7 10 Sudeste 28 Sudeste 0 -- -- 83
2020-03-15 03:00:00 10.5 14 Sudeste 28 Sudeste 0 -- -- 81
2020-03-15 02:00:00 10.9 12 Sudeste 27 Sudeste 0 -- -- 79
2020-03-15 01:00:00 11.5 11 Sudeste 27 Sudeste 0 -- -- 77
2020-03-15 00:00:00 12.5 2 Sudoeste 13 Sudeste 0 -- -- 68
2020-03-14 23:00:00 12.2 4 Sudeste 8 Sudeste 0 -- -- 66
2020-03-14 22:00:00 13.3 0 Calma 5 Oeste 0 -- -- 63
2020-03-14 21:00:00 14.6 2 Sudoeste 3 Oeste 0 -- -- 59
2020-03-14 20:00:00 16.2 0 Calma 7 Noroeste 0 -- -- 55
2020-03-14 19:00:00 18 5 Oeste 16 Noroeste 0 -- -- 51
2020-03-14 18:00:00 20 9 Noroeste 18 Noroeste 0 -- -- 47
2020-03-14 17:00:00 20.3 10 Oeste 22 Oeste 0 -- -- 48
2020-03-14 16:00:00 21.9 9 Oeste 20 Oeste 0 -- -- 45
2020-03-14 15:00:00 21.5 6 Oeste 18 Oeste 0 -- -- 46
2020-03-14 14:00:00 19.6 4 Este 14 Sudeste 0 -- -- 50
2020-03-14 13:00:00 18.2 6 Este 18 Este 0 -- -- 56
2020-03-14 12:00:00 15.9 7 Nordeste 14 Nordeste 0 -- -- 61
2020-03-14 11:00:00 13.6 7 Nordeste 12 Nordeste 0 -- -- 71
2020-03-14 10:00:00 10.6 5 Nordeste 15 Nordeste 0 -- -- 82
2020-03-14 09:00:00 9 5 Nordeste 8 Nordeste 0 -- -- 87
2020-03-14 08:00:00 5.7 0 Calma 7 Este 0 -- -- 91
2020-03-14 07:00:00 5.3 6 Nordeste 11 Nordeste 0 -- -- 91
2020-03-14 06:00:00 6.1 2 Norte 12 Noroeste 0 -- -- 86
2020-03-14 05:00:00 6.4 3 Sudeste 5 Nordeste 0 -- -- 87
2020-03-14 04:00:00 7.5 3 Nordeste 13 Sudeste 0 -- -- 85
2020-03-14 03:00:00 9 6 Sur 16 Sudeste 0 -- -- 81
2020-03-14 02:00:00 9.5 7 Sudeste 19 Sudeste 0 -- -- 79
2020-03-14 01:00:00 10 5 Sur 18 Sur 0 -- -- 76
2020-03-14 00:00:00 10.5 4 Sur 15 Sur 0 -- -- 74
2020-03-13 23:00:00 11.5 3 Sudeste 12 Sur 0 -- -- 71
2020-03-13 22:00:00 12.8 10 Sudeste 18 Sudeste 0 -- -- 66
2020-03-13 21:00:00 13.5 9 Sudeste 23 Sudeste 0 -- -- 62
2020-03-13 20:00:00 14.4 10 Sudeste 18 Este 0 -- -- 57
2020-03-13 19:00:00 17.9 10 Sudeste 21 Sudeste 0 -- -- 48
2020-03-13 18:00:00 19.9 14 Sudeste 25 Sudeste 0 -- -- 41
2020-03-13 17:00:00 20.8 13 Sudeste 25 Sudeste 0 -- -- 40
2020-03-13 16:00:00 21.5 13 Sur 28 Sur 0 -- -- 41
2020-03-13 15:00:00 21.2 11 Sur 22 Sudoeste 0 -- -- 41
2020-03-13 14:00:00 21 14 Sur 30 Sudeste 0 -- -- 44
2020-03-13 13:00:00 20.1 16 Sur 29 Sudeste 0 -- -- 48
2020-03-13 12:00:00 18.9 14 Sudeste 24 Sudeste 0 -- -- 52
2020-03-13 11:00:00 16.7 13 Sudeste 24 Sudeste 0 -- -- 57
2020-03-13 10:00:00 15.7 11 Sudeste 23 Sudeste 0 -- -- 58
2020-03-13 09:00:00 13.2 4 Sur 8 Sur 0 -- -- 65
2020-03-13 08:00:00 9.9 2 Sur 5 Sudeste 0 -- -- 73
2020-03-13 07:00:00 10 4 Sudoeste 7 Sudeste 0 -- -- 72
2020-03-13 06:00:00 10.3 3 Sudeste 12 Este 0 -- -- 71
2020-03-13 05:00:00 10.5 4 Sudeste 13 Sudeste 0 -- -- 71
2020-03-13 04:00:00 10.2 2 Sur 5 Sudeste 0 -- -- 72
2020-03-13 03:00:00 10.2 2 Sudeste 3 Sudeste 0 -- -- 72
2020-03-13 02:00:00 11.2 0 Calma 2 Oeste 0 -- -- 68
2020-03-13 01:00:00 11.5 0 Calma 2 Nordeste 0 -- -- 66
2020-03-13 00:00:00 12.5 0 Calma 6 Sudeste 0 -- -- 61
2020-03-12 23:00:00 14.1 0 Calma 6 Norte 0 -- -- 58
2020-03-12 22:00:00 16.2 2 Noroeste 5 Nordeste 0 -- -- 51
2020-03-12 21:00:00 17.8 0 Calma 23 Norte 0 -- -- 48
2020-03-12 20:00:00 19.7 11 Noroeste 18 Noroeste 0 -- -- 44
2020-03-12 19:00:00 22.4 2 Oeste 9 Sudoeste 0 -- -- 39
2020-03-12 18:00:00 24.3 4 Sudoeste 18 Oeste 0 -- -- 30
2020-03-12 17:00:00 25.4 8 Sudoeste 19 Oeste 0 -- -- 30
2020-03-12 16:00:00 24.9 9 Sudoeste 26 Oeste 0 -- -- 27
2020-03-12 15:00:00 25.9 11 Sudoeste 27 Sudoeste 0 -- -- 27
2020-03-12 14:00:00 25.6 10 Sudoeste 27 Sudoeste 0 -- -- 31
2020-03-12 13:00:00 24.1 10 Sur 22 Sur 0 -- -- 36
2020-03-12 12:00:00 22.1 10 Sur 15 Sur 0 -- -- 42
2020-03-12 11:00:00 19.4 6 Este 12 Nordeste 0 -- -- 48
2020-03-12 10:00:00 14.8 8 Norte 12 Norte 0 -- -- 63
2020-03-12 09:00:00 11.7 5 Nordeste 7 Nordeste 0 -- -- 72
2020-03-12 08:00:00 7.7 5 Nordeste 9 Norte 0 -- -- 77
2020-03-12 07:00:00 6.6 4 Nordeste 7 Este 0 -- -- 78
2020-03-12 06:00:00 7.2 4 Nordeste 8 Nordeste 0 -- -- 77
2020-03-12 05:00:00 7.8 4 Nordeste 13 Este 0 -- -- 72
2020-03-12 04:00:00 8.8 3 Este 14 Sudeste 0 -- -- 71
2020-03-12 03:00:00 7.9 0 Calma 4 Nordeste -- -- -- 72
2020-03-12 02:00:00 8.6 0 Calma 3 Sudeste 0 -- -- 72
2020-03-12 01:00:00 9.4 2 Sudeste 4 Sur 0 -- -- 69
2020-03-12 00:00:00 10.6 2 Este 3 Oeste 0 -- -- 68
2020-03-11 23:00:00 12 0 Calma 2 Oeste 0 -- -- 64
2020-03-11 22:00:00 13.3 0 Calma 2 Norte 0 -- -- 62
2020-03-11 21:00:00 15.1 0 Calma 4 Este 0 -- -- 56
2020-03-11 20:00:00 17.7 2 Este 4 Este 0 -- -- 48
2020-03-11 19:00:00 21.2 0 Calma 12 Noroeste 0 -- -- 42
2020-03-11 18:00:00 23.5 6 Oeste 15 Oeste 0 -- -- 39
2020-03-11 17:00:00 25.3 8 Oeste 18 Oeste 0 -- -- 31
2020-03-11 16:00:00 25 10 Oeste 21 Oeste 0 -- -- 31
2020-03-11 15:00:00 24.8 12 Oeste 22 Oeste 0 -- -- 34
2020-03-11 14:00:00 23.6 5 Oeste 12 Oeste 0 -- -- 36
2020-03-11 13:00:00 22 3 Este 8 Norte 0 -- -- 45
2020-03-11 12:00:00 19.7 3 Noroeste 7 Sudoeste 0 -- -- 49
2020-03-11 11:00:00 16.8 2 Norte 6 Norte 0 -- -- 59
2020-03-11 10:00:00 13.4 3 Noroeste 5 Norte 0 -- -- 67
2020-03-11 09:00:00 9.3 3 Norte 6 Norte 0 -- -- 76
2020-03-11 08:00:00 3.8 0 Calma 5 Norte 0 -- -- 88
2020-03-11 07:00:00 4.2 0 Calma 3 Nordeste 0 -- -- 85
2020-03-11 06:00:00 5.2 0 Calma 7 Sudeste 0 -- -- 81
2020-03-11 05:00:00 5.7 2 Este 7 Nordeste 0 -- -- 80
2020-03-11 04:00:00 7.4 3 Oeste 6 Sur 0 -- -- 75
2020-03-11 03:00:00 7.5 4 Sur 5 Sur 0 -- -- 73
2020-03-11 02:00:00 8.4 0 Calma 6 Sur 0 -- -- 68
2020-03-11 01:00:00 9.4 4 Sur 7 Sur 0 -- -- 65
2020-03-11 00:00:00 9.4 5 Sur 9 Sur 0 -- -- 67
2020-03-10 23:00:00 9.9 0 Calma 5 Sudeste 0 -- -- 67
2020-03-10 22:00:00 11.6 0 Calma 5 Sur 0 -- -- 61
2020-03-10 21:00:00 13.5 3 Norte 7 Norte 0 -- -- 55
2020-03-10 20:00:00 15.3 3 Sudoeste 8 Oeste 0 -- -- 49
2020-03-10 19:00:00 17.7 6 Oeste 13 Oeste 0 -- -- 45
2020-03-10 18:00:00 20.2 6 Oeste 19 Oeste 0 -- -- 41
2020-03-10 17:00:00 20.7 12 Oeste 22 Oeste 0 -- -- 38
2020-03-10 16:00:00 20.7 12 Oeste 18 Oeste 0 -- -- 38
2020-03-10 15:00:00 19.8 10 Oeste 19 Oeste 0 -- -- 40
2020-03-10 14:00:00 19.6 8 Oeste 17 Oeste 0 -- -- 39
2020-03-10 13:00:00 18.1 6 Oeste 19 Oeste 0 -- -- 41
2020-03-10 12:00:00 15.1 4 Norte 9 Nordeste 0 -- -- 49
2020-03-10 11:00:00 12.7 6 Nordeste 12 Nordeste 0 -- -- 54
2020-03-10 10:00:00 9.4 7 Norte 10 Norte 0 -- -- 63
2020-03-10 09:00:00 4.9 4 Norte 5 Noroeste 0 -- -- 78
2020-03-10 08:00:00 0.8 0 Calma 3 Oeste 0 -- -- 84
2020-03-10 07:00:00 1.2 0 Calma 4 Nordeste 0 -- -- 81
2020-03-10 06:00:00 1.3 0 Calma 4 Noroeste 0 -- -- 82
2020-03-10 05:00:00 1.8 0 Calma 4 Oeste 0 -- -- 78
2020-03-10 04:00:00 2.5 0 Calma 5 Noroeste 0 -- -- 76
2020-03-10 03:00:00 3.4 2 Sur 6 Oeste 0 -- -- 73
2020-03-10 02:00:00 4.3 0 Calma 3 Nordeste 0 -- -- 69
2020-03-10 01:00:00 5.1 0 Calma 4 Norte 0 -- -- 67
2020-03-10 00:00:00 5.9 2 Nordeste 6 Este 0 -- -- 63
2020-03-09 23:00:00 8.5 2 Nordeste 12 Norte 0 -- -- 55
2020-03-09 22:00:00 9.7 8 Norte 24 Norte 0 -- -- 49
2020-03-09 21:00:00 10.5 9 Norte 20 Norte 0 -- -- 48
2020-03-09 20:00:00 10.7 9 Norte 21 Noroeste 0 -- -- 49
2020-03-09 19:00:00 12.3 14 Noroeste 28 Noroeste 0 -- -- 44
2020-03-09 18:00:00 14 20 Noroeste 33 Noroeste 0 -- -- 39
2020-03-09 17:00:00 15.2 18 Noroeste 36 Noroeste 0 -- -- 36
2020-03-09 16:00:00 14.8 21 Noroeste 41 Noroeste 0 -- -- 38
2020-03-09 15:00:00 14.6 19 Noroeste 40 Noroeste 0 -- -- 40
2020-03-09 14:00:00 13.8 23 Noroeste 35 Noroeste 0 -- -- 41
2020-03-09 13:00:00 12.7 14 Norte 26 Norte 0 -- -- 51
2020-03-09 12:00:00 10.7 11 Nordeste 24 Nordeste 0 -- -- 61
2020-03-09 11:00:00 8.8 13 Nordeste 24 Norte 0 -- -- 69
2020-03-09 10:00:00 8.1 8 Norte 15 Norte 0 -- -- 74
2020-03-09 09:00:00 4.9 0 Calma 5 Sudoeste 0 -- -- 88
2020-03-09 08:00:00 2.7 2 Oeste 6 Sudeste 0 -- -- 92
2020-03-09 07:00:00 2.8 2 Sudoeste 7 Noroeste 0 -- -- 91
2020-03-09 06:00:00 3.8 4 Oeste 9 Noroeste 0 -- -- 87
2020-03-09 05:00:00 5 6 Noroeste 10 Noroeste 0 -- -- 88
2020-03-09 04:00:00 5.4 6 Noroeste 10 Noroeste 0 -- -- 85
2020-03-09 03:00:00 6.2 6 Noroeste 14 Oeste 0 -- -- 82
2020-03-09 02:00:00 6.9 11 Noroeste 19 Noroeste 0 -- -- 81
2020-03-09 01:00:00 5.9 3 Oeste 17 Oeste 0 -- -- 84
2020-03-09 00:00:00 6.5 13 Oeste 20 Noroeste 0 -- -- 82
2020-03-08 23:00:00 7.7 14 Oeste 22 Oeste 0 -- -- 75
2020-03-08 22:00:00 8.5 5 Oeste 17 Oeste 0 -- -- 70
2020-03-08 21:00:00 9.8 8 Oeste 18 Oeste 0 -- -- 64
2020-03-08 20:00:00 10.6 7 Oeste 21 Noroeste 0 -- -- 61
2020-03-08 19:00:00 12.2 10 Oeste 26 Oeste 0 -- -- 55
2020-03-08 18:00:00 13.3 13 Oeste 26 Oeste 0 -- -- 51
2020-03-08 17:00:00 13.6 16 Oeste 31 Sudoeste 0 -- -- 45
2020-03-08 16:00:00 14.9 14 Noroeste 29 Oeste 0 -- -- 41
2020-03-08 15:00:00 15.1 14 Oeste 26 Sudoeste 0 -- -- 40
2020-03-08 14:00:00 14.3 13 Oeste 27 Oeste 0 -- -- 47
2020-03-08 13:00:00 13.1 14 Oeste 28 Noroeste 0 -- -- 54
2020-03-08 12:00:00 12 18 Oeste 31 Oeste 0 -- -- 58
2020-03-08 11:00:00 10.6 6 Oeste 13 Sudoeste 0 -- -- 64
2020-03-08 10:00:00 7 2 Sur 5 Sur 0 -- -- 75
2020-03-08 09:00:00 1.7 0 Calma 4 Norte 0 -- -- 88
2020-03-08 08:00:00 -2.8 0 Calma 4 Sur 0 -- -- 91
2020-03-08 07:00:00 -2.4 0 Calma 3 Noroeste 0 -- -- 92
2020-03-08 06:00:00 -2 0 Calma 4 Oeste 0 -- -- 89
2020-03-08 05:00:00 -1.3 0 Calma 7 Oeste 0 -- -- 90
2020-03-08 04:00:00 -0.2 3 Sudoeste 5 Oeste 0 -- -- 89
2020-03-08 03:00:00 0.4 0 Calma 5 Nordeste 0 -- -- 87
2020-03-08 02:00:00 1.7 0 Calma 2 Oeste 0 -- -- 82
2020-03-08 01:00:00 2.8 0 Calma 6 Oeste 0 -- -- 79
2020-03-08 00:00:00 4.2 0 Calma 8 Oeste 0 -- -- 74